createdAt,value
2023-01-07T00:01:34.167Z,100739.53
2023-01-07T00:06:56.096Z,100761.56
2023-01-07T00:12:17.941Z,100762.47
2023-01-07T00:17:39.820Z,100774.53
2023-01-07T00:23:01.688Z,100782.19
2023-01-07T00:28:23.810Z,100781.13
2023-01-07T00:33:46.860Z,100765.84
2023-01-07T00:39:20.358Z,100804.31
2023-01-07T00:44:42.218Z,100812.13
2023-01-07T00:50:04.366Z,100813.91
2023-01-07T00:55:27.059Z,100822.34
2023-01-07T01:00:49.587Z,100791.69
2023-01-07T01:06:14.639Z,100800.97
2023-01-07T01:11:36.526Z,100799.56
2023-01-07T01:16:58.346Z,100819.16
2023-01-07T01:22:20.209Z,100833.47
2023-01-07T01:27:42.098Z,100830.25
2023-01-07T01:33:03.992Z,100824.34
2023-01-07T01:38:25.830Z,100829.63
2023-01-07T01:43:47.941Z,100819.50
2023-01-07T01:49:32.872Z,100838.22
2023-01-07T01:54:59.226Z,100828.88
2023-01-07T02:00:21.341Z,100839.97
2023-01-07T02:05:44.864Z,100831.50
2023-01-07T02:11:47.729Z,100843.47
2023-01-07T02:17:37.481Z,100826.50
2023-01-07T02:23:18.139Z,100825.69
2023-01-07T02:29:01.311Z,100820.69
2023-01-07T02:34:34.107Z,100819.69
2023-01-07T02:40:20.358Z,100821.50
2023-01-07T02:45:50.926Z,100828.06
2023-01-07T02:51:13.070Z,100815.44
2023-01-07T02:56:49.444Z,100835.91
2023-01-07T03:02:18.452Z,100840.22
2023-01-07T03:07:55.497Z,100836.84
2023-01-07T03:13:23.075Z,100826.72
2023-01-07T03:18:59.287Z,100808.78
2023-01-07T03:24:23.658Z,100802.78
2023-01-07T03:29:47.601Z,100816.41
2023-01-07T03:35:10.125Z,100834.25
2023-01-07T03:40:32.477Z,100821.44
2023-01-07T03:45:57.623Z,100830.81
2023-01-07T03:51:19.541Z,100830.84
2023-01-07T03:56:41.401Z,100830.72
2023-01-07T04:02:03.347Z,100827.41
2023-01-07T04:07:25.291Z,100824.03
2023-01-07T04:12:47.673Z,100826.66
2023-01-07T04:18:09.521Z,100830.09
2023-01-07T04:23:31.469Z,100818.97
2023-01-07T04:28:53.405Z,100836.88
2023-01-07T04:34:15.294Z,100833.44
2023-01-07T04:39:37.181Z,100834.16
2023-01-07T04:44:59.075Z,100838.41
2023-01-07T04:50:20.982Z,100842.66
2023-01-07T04:55:44.397Z,100857.09
2023-01-07T05:01:08.201Z,100837.50
2023-01-07T05:06:30.142Z,100856.06
2023-01-07T05:11:51.949Z,100852.34
2023-01-07T05:17:13.827Z,100852.44
2023-01-07T05:22:35.669Z,100843.00
2023-01-07T05:27:57.544Z,100865.97
2023-01-07T05:33:19.531Z,100880.38
2023-01-07T05:38:41.375Z,100888.00
2023-01-07T05:44:03.347Z,100881.94
2023-01-07T05:49:25.178Z,100905.94
2023-01-07T05:54:47.104Z,100903.41
2023-01-07T06:00:09.816Z,100900.03
2023-01-07T06:05:31.898Z,100897.34
2023-01-07T06:10:53.774Z,100894.03
2023-01-07T06:16:16.148Z,100891.50
2023-01-07T06:21:38.034Z,100909.22
2023-01-07T06:26:59.857Z,100904.13
2023-01-07T06:32:21.809Z,100920.94
2023-01-07T06:37:43.687Z,100922.69
2023-01-07T06:43:05.517Z,100929.53
2023-01-07T06:48:27.349Z,100937.31
2023-01-07T06:53:49.230Z,100933.09
2023-01-07T06:59:11.480Z,100949.19
2023-01-07T07:04:33.354Z,100947.66
2023-01-07T07:09:55.211Z,100948.59
2023-01-07T07:15:17.099Z,100956.22
2023-01-07T07:20:39.005Z,100967.44
2023-01-07T07:26:00.899Z,100946.06
2023-01-07T07:31:22.862Z,100965.97
2023-01-07T07:36:44.791Z,100975.47
2023-01-07T07:42:06.680Z,100971.25
2023-01-07T07:47:28.531Z,100971.22
2023-01-07T07:52:50.367Z,100961.75
2023-01-07T07:58:12.460Z,100983.13
2023-01-07T08:03:34.413Z,100969.47
2023-01-07T08:08:56.310Z,100980.59
2023-01-07T08:14:18.202Z,100978.09
2023-01-07T08:19:40.090Z,100979.16
2023-01-07T08:25:02.486Z,100981.75
2023-01-07T08:30:25.217Z,100983.47
2023-01-07T08:35:47.106Z,100983.53
2023-01-07T08:41:09.246Z,100978.44
2023-01-07T08:46:31.180Z,100980.25
2023-01-07T08:51:53.259Z,100978.59
2023-01-07T08:57:15.817Z,100983.00
2023-01-07T09:02:37.738Z,100975.38
2023-01-07T09:07:59.738Z,100984.94
2023-01-07T09:13:21.851Z,100985.91
2023-01-07T09:18:43.805Z,100973.19
2023-01-07T09:24:05.871Z,100990.28
2023-01-07T09:29:27.894Z,100991.13
2023-01-07T09:34:49.754Z,100983.31
2023-01-07T09:40:27.146Z,100984.13
2023-01-07T09:45:59.805Z,100971.31
2023-01-07T09:51:35.478Z,100974.81
2023-01-07T09:56:57.578Z,100973.03
2023-01-07T10:02:45.623Z,100975.34
2023-01-07T10:08:29.117Z,100980.75
2023-01-07T10:14:05.808Z,100963.72
2023-01-07T10:19:50.929Z,100979.06
2023-01-07T10:25:20.471Z,100975.59
2023-01-07T10:30:46.974Z,100973.00
2023-01-07T10:36:33.589Z,100959.97
2023-01-07T10:42:00.976Z,100959.16
2023-01-07T10:47:28.719Z,100951.44
2023-01-07T10:53:14.700Z,100949.59
2023-01-07T10:58:41.086Z,100934.75
2023-01-07T11:04:04.612Z,100931.81
2023-01-07T11:09:38.213Z,100933.56
2023-01-07T11:15:04.087Z,100935.91
2023-01-07T11:20:52.075Z,100935.97
2023-01-07T11:26:16.301Z,100914.47
2023-01-07T11:31:53.284Z,100929.03
2023-01-07T11:37:35.950Z,100921.28
2023-01-07T11:43:20.369Z,100911.63
2023-01-07T11:48:55.481Z,100908.41
2023-01-07T11:54:26.427Z,100898.88
2023-01-07T11:59:48.371Z,100899.31
2023-01-07T12:05:24.081Z,100896.09
2023-01-07T12:10:46.192Z,100880.78
2023-01-07T12:16:08.989Z,100875.88
2023-01-07T12:21:33.675Z,100886.06
2023-01-07T12:27:00.660Z,100871.53
2023-01-07T12:32:28.552Z,100871.50
2023-01-07T12:37:56.494Z,100869.69
2023-01-07T12:43:25.113Z,100873.53
2023-01-07T12:49:02.261Z,100869.81
2023-01-07T12:54:42.420Z,100866.47
2023-01-07T13:00:16.823Z,100864.94
2023-01-07T13:05:59.924Z,100872.00
2023-01-07T13:11:30.718Z,100857.31
2023-01-07T13:16:54.718Z,100865.69
2023-01-07T13:22:28.986Z,100857.09
2023-01-07T13:28:23.047Z,100863.16
2023-01-07T13:33:57.023Z,100866.44
2023-01-07T13:39:37.746Z,100873.28
2023-01-07T13:45:08.843Z,100878.41
2023-01-07T13:50:33.755Z,100864.03
2023-01-07T13:56:18.306Z,100880.22
2023-01-07T14:02:18.888Z,100879.38
2023-01-07T14:08:02.451Z,100886.28
2023-01-07T14:13:39.375Z,100880.41
2023-01-07T14:19:51.967Z,100891.50
2023-01-07T14:25:32.951Z,100893.25
2023-01-07T14:30:55.252Z,100901.78
2023-01-07T14:36:17.315Z,100901.13
2023-01-07T14:42:14.139Z,100908.00
2023-01-07T14:47:44.865Z,100909.03
2023-01-07T14:53:06.647Z,100909.03
2023-01-07T14:58:53.238Z,100909.06
2023-01-07T15:04:27.320Z,100924.47
2023-01-07T15:10:23.788Z,100923.56
2023-01-07T15:15:50.186Z,100931.22
2023-01-07T15:21:39.944Z,100933.00
2023-01-07T15:27:23.792Z,100939.00
2023-01-07T15:32:54.688Z,100933.81
2023-01-07T15:38:25.626Z,100929.59
2023-01-07T15:43:47.639Z,100928.75
2023-01-07T15:49:09.412Z,100928.75
2023-01-07T15:54:35.140Z,100948.41
2023-01-07T15:59:57.920Z,100953.53
2023-01-07T16:05:20.108Z,100946.69
2023-01-07T16:10:42.091Z,100949.22
2023-01-07T16:16:04.599Z,100949.22
2023-01-07T16:21:35.199Z,100932.13
2023-01-07T16:27:00.410Z,100932.09
2023-01-07T16:32:23.687Z,100922.72
2023-01-07T16:37:47.201Z,100920.19
2023-01-07T16:43:30.578Z,100916.81
2023-01-07T16:49:11.347Z,100909.16
2023-01-07T16:54:37.614Z,100908.31
2023-01-07T17:00:02.439Z,100901.47
2023-01-07T17:05:27.447Z,100893.75
2023-01-07T17:10:58.527Z,100893.81
2023-01-07T17:16:23.293Z,100886.13
2023-01-07T17:21:45.169Z,100879.31
2023-01-07T17:27:18.155Z,100883.56
2023-01-07T17:32:42.113Z,100886.13
2023-01-07T17:38:12.138Z,100881.00
2023-01-07T17:43:34.022Z,100892.94
2023-01-07T17:48:59.876Z,100888.66
2023-01-07T17:54:24.657Z,100892.09
2023-01-07T17:59:46.501Z,100875.88
2023-01-07T18:05:14.658Z,100864.78
2023-01-07T18:10:36.788Z,100872.47
2023-01-07T18:15:59.038Z,100868.25
2023-01-07T18:21:20.946Z,100865.66
2023-01-07T18:26:42.929Z,100871.66
2023-01-07T18:32:04.965Z,100886.16
2023-01-07T18:37:26.926Z,100877.63
2023-01-07T18:42:48.916Z,100872.50
2023-01-07T18:48:12.824Z,100877.59
2023-01-07T18:53:34.671Z,100870.75
2023-01-07T18:58:56.580Z,100868.19
2023-01-07T19:04:18.437Z,100866.47
2023-01-07T19:09:40.398Z,100858.84
2023-01-07T19:15:02.253Z,100844.34
2023-01-07T19:20:24.078Z,100847.75
2023-01-07T19:25:56.518Z,100857.97
2023-01-07T19:31:18.386Z,100861.34
2023-01-07T19:36:41.324Z,100856.28
2023-01-07T19:42:03.209Z,100845.19
2023-01-07T19:47:25.258Z,100849.50
2023-01-07T19:52:47.063Z,100832.44
2023-01-07T19:58:08.897Z,100831.56
2023-01-07T20:03:35.129Z,100840.09
2023-01-07T20:08:58.239Z,100844.34
2023-01-07T20:14:20.087Z,100839.25
2023-01-07T20:19:41.917Z,100834.13
2023-01-07T20:25:03.956Z,100829.00
2023-01-07T20:30:25.748Z,100820.47
2023-01-07T20:35:47.575Z,100813.66
2023-01-07T20:41:13.234Z,100801.72
2023-01-07T20:46:35.302Z,100807.69
2023-01-07T20:51:57.178Z,100801.69
2023-01-07T20:57:19.011Z,100802.53
2023-01-07T21:02:41.019Z,100819.63
2023-01-07T21:08:02.964Z,100813.66
2023-01-07T21:13:24.829Z,100817.06
2023-01-07T21:18:46.674Z,100820.47
2023-01-07T21:24:08.930Z,100812.81
2023-01-07T21:29:30.810Z,100803.44
2023-01-07T21:34:52.639Z,100801.72
2023-01-07T21:40:14.452Z,100798.31
2023-01-07T21:45:36.745Z,100787.22
2023-01-07T21:51:07.005Z,100796.63
2023-01-07T21:56:30.438Z,100809.41
2023-01-07T22:01:52.594Z,100799.19
2023-01-07T22:07:18.766Z,100817.06
2023-01-07T22:12:40.664Z,100803.44
2023-01-07T22:18:02.482Z,100800.03
2023-01-07T22:23:24.309Z,100790.63
2023-01-07T22:28:51.703Z,100795.75
2023-01-07T22:34:13.648Z,100780.41
2023-01-07T22:39:41.537Z,100782.97
2023-01-07T22:45:10.929Z,100769.31
2023-01-07T22:50:34.138Z,100773.59
2023-01-07T22:55:57.891Z,100775.28
2023-01-07T23:01:20.108Z,100770.16
2023-01-07T23:06:42.056Z,100783.78
2023-01-07T23:12:04.472Z,100764.22
2023-01-07T23:17:26.282Z,100773.59
2023-01-07T23:22:48.109Z,100771.03
2023-01-07T23:28:09.915Z,100768.44
2023-01-07T23:33:31.834Z,100760.78
2023-01-07T23:38:53.763Z,100759.06
2023-01-07T23:44:15.700Z,100739.47
2023-01-07T23:49:37.504Z,100742.88
2023-01-07T23:54:59.458Z,100742.88
